createdAt,value
2019-04-21T00:00:37.397Z,14.88
2019-04-21T00:03:15.262Z,14.88
2019-04-21T00:05:58.718Z,14.81
2019-04-21T00:13:28.095Z,14.76
2019-04-21T00:15:53.758Z,14.83
2019-04-21T00:18:58.022Z,14.78
2019-04-21T00:21:29.190Z,14.76
2019-04-21T00:24:28.801Z,14.64
2019-04-21T00:27:18.807Z,14.56
2019-04-21T00:29:40.995Z,14.52
2019-04-21T00:32:01.707Z,14.51
2019-04-21T00:34:19.604Z,14.51
2019-04-21T00:36:59.937Z,14.50
2019-04-21T00:39:58.819Z,14.53
2019-04-21T00:42:16.771Z,14.61
2019-04-21T00:44:36.670Z,14.64
2019-04-21T00:47:15.701Z,14.57
2019-04-21T00:49:56.858Z,14.54
2019-04-21T00:52:53.878Z,14.49
2019-04-21T01:00:27.798Z,14.35
2019-04-21T01:03:04.970Z,14.31
2019-04-21T01:05:38.547Z,14.31
2019-04-21T01:08:04.654Z,14.32
2019-04-21T01:10:27.117Z,14.35
2019-04-21T01:13:11.342Z,14.31
2019-04-21T01:15:43.647Z,14.23
2019-04-21T01:18:11.023Z,14.24
2019-04-21T01:20:21.695Z,14.27
2019-04-21T01:22:51.825Z,14.24
2019-04-21T01:25:30.183Z,14.17
2019-04-21T01:28:09.873Z,14.24
2019-04-21T01:30:46.069Z,14.33
2019-04-21T01:33:21.353Z,14.36
2019-04-21T01:35:47.947Z,14.35
2019-04-21T01:38:24.467Z,14.34
2019-04-21T01:40:55.493Z,14.29
2019-04-21T01:43:24.679Z,14.35
2019-04-21T01:45:56.699Z,14.37
2019-04-21T01:48:28.985Z,14.37
2019-04-21T01:50:55.764Z,14.33
2019-04-21T01:53:48.606Z,14.30
2019-04-21T01:56:43.189Z,14.20
2019-04-21T01:58:59.254Z,14.15
2019-04-21T02:01:42.450Z,14.12
2019-04-21T02:04:22.747Z,14.04
2019-04-21T02:06:44.472Z,14.01
2019-04-21T02:09:17.291Z,14.06
2019-04-21T02:11:54.820Z,14.08
2019-04-21T02:14:45.900Z,14.04
2019-04-21T02:16:52.111Z,13.89
2019-04-21T02:19:26.655Z,13.76
2019-04-21T02:21:52.933Z,13.74
2019-04-21T02:24:35.170Z,13.74
2019-04-21T02:27:07.634Z,13.75
2019-04-21T02:29:33.139Z,13.75
2019-04-21T02:32:19.356Z,13.69
2019-04-21T02:34:52.286Z,13.76
2019-04-21T02:39:58.876Z,13.91
2019-04-21T02:42:18.210Z,13.99
2019-04-21T02:44:52.205Z,13.95
2019-04-21T02:47:38.925Z,13.93
2019-04-21T02:52:39.278Z,13.87
2019-04-21T02:55:03.854Z,13.80
2019-04-21T02:57:43.513Z,13.79
2019-04-21T03:02:55.373Z,13.80
2019-04-21T03:05:54.363Z,13.84
2019-04-21T03:08:32.151Z,13.86
2019-04-21T03:11:04.878Z,13.80
2019-04-21T03:13:31.407Z,13.71
2019-04-21T03:18:33.789Z,13.71
2019-04-21T03:21:07.166Z,13.72
2019-04-21T03:23:38.853Z,13.65
2019-04-21T03:28:37.394Z,13.63
2019-04-21T03:34:15.794Z,13.61
2019-04-21T03:36:40.069Z,13.64
2019-04-21T03:38:46.903Z,13.64
2019-04-21T03:43:54.339Z,13.62
2019-04-21T03:46:28.608Z,13.64
2019-04-21T03:48:54.031Z,13.72
2019-04-21T03:53:55.842Z,13.74
2019-04-21T03:56:52.379Z,13.79
2019-04-21T04:01:46.928Z,13.77
2019-04-21T04:04:35.528Z,13.75
2019-04-21T04:07:33.808Z,13.73
2019-04-21T04:10:02.478Z,13.69
2019-04-21T04:15:07.193Z,13.78
2019-04-21T04:17:36.056Z,13.82
2019-04-21T04:20:06.045Z,13.80
2019-04-21T04:22:56.232Z,13.83
2019-04-21T04:25:11.482Z,13.82
2019-04-21T04:30:25.422Z,13.91
2019-04-21T04:32:42.474Z,13.93
2019-04-21T04:35:25.563Z,13.94
2019-04-21T04:40:49.233Z,14.02
2019-04-21T04:45:40.935Z,14.03
2019-04-21T04:58:18.767Z,14.04
2019-04-21T05:03:26.366Z,14.03
2019-04-21T05:06:44.018Z,14.10
2019-04-21T05:14:10.265Z,14.29
2019-04-21T05:23:55.609Z,14.32
2019-04-21T05:26:26.850Z,14.26
2019-04-21T05:28:55.541Z,14.25
2019-04-21T05:32:00.440Z,14.21
2019-04-21T05:34:31.511Z,14.15
2019-04-21T05:37:28.934Z,14.18
2019-04-21T05:40:00.694Z,14.20
2019-04-21T05:42:36.619Z,14.19
2019-04-21T05:45:18.519Z,14.20
2019-04-21T05:48:15.929Z,14.15
2019-04-21T05:50:34.979Z,14.04
2019-04-21T05:53:00.198Z,13.99
2019-04-21T05:55:43.523Z,14.02
2019-04-21T05:58:08.670Z,14.05
2019-04-21T06:01:09.397Z,14.00
2019-04-21T06:03:27.867Z,14.01
2019-04-21T06:11:03.083Z,14.29
2019-04-21T06:13:35.071Z,14.34
2019-04-21T06:16:03.554Z,14.39
2019-04-21T06:18:43.318Z,14.47
2019-04-21T06:23:53.901Z,14.69
2019-04-21T06:26:26.942Z,14.77
2019-04-21T06:28:47.243Z,14.87
2019-04-21T06:31:47.059Z,15.11
2019-04-21T06:33:48.810Z,15.17
2019-04-21T06:36:41.424Z,15.17
2019-04-21T06:44:09.402Z,15.49
2019-04-21T06:46:35.474Z,15.55
2019-04-21T06:49:07.017Z,15.68
2019-04-21T06:51:36.161Z,15.78
2019-04-21T06:54:29.114Z,15.86
2019-04-21T06:56:47.286Z,15.94
2019-04-21T06:59:09.477Z,16.17
2019-04-21T07:01:55.234Z,16.24
2019-04-21T07:04:24.260Z,16.24
2019-04-21T07:11:55.149Z,16.60
2019-04-21T07:17:06.381Z,16.77
2019-04-21T07:19:34.944Z,16.88
2019-04-21T07:22:07.423Z,16.96
2019-04-21T07:24:37.054Z,17.06
2019-04-21T07:27:08.863Z,17.18
2019-04-21T07:29:42.895Z,17.29
2019-04-21T07:32:09.420Z,17.40
2019-04-21T07:34:39.719Z,17.50
2019-04-21T07:37:11.943Z,17.63
2019-04-21T07:39:40.263Z,17.81
2019-04-21T07:42:13.459Z,17.97
2019-04-21T07:44:40.838Z,18.14
2019-04-21T07:47:15.701Z,18.32
2019-04-21T07:50:06.823Z,18.51
2019-04-21T07:53:15.707Z,18.64
2019-04-21T07:58:15.055Z,19.07
2019-04-21T08:00:51.330Z,19.24
2019-04-21T08:03:25.056Z,19.38
2019-04-21T08:05:53.020Z,19.54
2019-04-21T08:08:20.927Z,19.67
2019-04-21T08:10:52.331Z,19.80
2019-04-21T08:13:34.170Z,19.93
2019-04-21T08:15:57.995Z,20.05
2019-04-21T08:18:37.769Z,20.20
2019-04-21T08:21:00.318Z,20.33
2019-04-21T08:23:32.866Z,20.52
2019-04-21T08:26:04.790Z,20.69
2019-04-21T08:28:42.654Z,20.88
2019-04-21T08:31:10.254Z,21.09
2019-04-21T08:36:19.038Z,21.49
2019-04-21T08:38:45.870Z,21.68
2019-04-21T08:41:12.268Z,21.86
2019-04-21T08:43:44.614Z,21.96
2019-04-21T08:46:18.977Z,22.11
2019-04-21T08:48:55.328Z,22.24
2019-04-21T08:51:27.033Z,22.41
2019-04-21T08:54:05.504Z,22.54
2019-04-21T08:56:37.208Z,22.64
2019-04-21T08:59:29.477Z,22.79
2019-04-21T09:02:18.025Z,22.90
2019-04-21T09:04:49.097Z,22.99
2019-04-21T09:07:23.891Z,23.10
2019-04-21T09:09:52.194Z,23.18
2019-04-21T09:12:22.603Z,23.29
2019-04-21T09:14:56.766Z,23.39
2019-04-21T09:17:20.643Z,23.50
2019-04-21T09:20:01.302Z,23.58
2019-04-21T09:22:32.443Z,23.70
2019-04-21T09:24:55.950Z,23.79
2019-04-21T09:27:30.819Z,23.85
2019-04-21T09:29:52.376Z,23.97
2019-04-21T09:32:23.180Z,24.09
2019-04-21T09:34:50.693Z,24.19
2019-04-21T09:37:33.034Z,24.25
2019-04-21T09:39:55.188Z,24.30
2019-04-21T09:42:33.346Z,24.49
2019-04-21T09:45:00.490Z,24.63
2019-04-21T09:47:35.077Z,24.70
2019-04-21T09:50:02.795Z,24.82
2019-04-21T09:52:41.773Z,24.92
2019-04-21T09:55:13.481Z,25.03
2019-04-21T09:57:44.849Z,25.12
2019-04-21T10:00:15.143Z,25.25
2019-04-21T10:02:51.564Z,25.37
2019-04-21T10:05:14.438Z,25.41
2019-04-21T10:07:44.519Z,25.49
2019-04-21T10:10:14.901Z,25.59
2019-04-21T10:12:45.472Z,25.65
2019-04-21T10:15:16.541Z,25.71
2019-04-21T10:17:54.057Z,25.80
2019-04-21T10:20:24.548Z,25.85
2019-04-21T10:22:55.258Z,26.01
2019-04-21T10:25:25.443Z,26.09
2019-04-21T10:27:57.063Z,26.20
2019-04-21T10:30:27.170Z,26.28
2019-04-21T10:32:58.420Z,26.42
2019-04-21T10:35:28.970Z,26.49
2019-04-21T10:38:10.994Z,26.64
2019-04-21T10:40:33.583Z,26.76
2019-04-21T10:43:03.930Z,26.88
2019-04-21T10:45:34.917Z,27.02
2019-04-21T10:48:05.185Z,27.13
2019-04-21T10:50:35.232Z,27.25
2019-04-21T10:53:09.250Z,27.40
2019-04-21T10:55:54.307Z,27.44
2019-04-21T10:58:24.599Z,27.54
2019-04-21T11:01:04.279Z,27.64
2019-04-21T11:03:53.174Z,27.78
2019-04-21T11:06:24.514Z,27.95
2019-04-21T11:08:57.509Z,28.01
2019-04-21T11:11:27.965Z,28.08
2019-04-21T11:13:58.847Z,28.18
2019-04-21T11:16:29.183Z,28.17
2019-04-21T11:18:59.995Z,28.24
2019-04-21T11:21:31.134Z,28.30
2019-04-21T11:24:02.373Z,28.47
2019-04-21T11:26:33.711Z,28.61
2019-04-21T11:29:05.211Z,28.67
2019-04-21T11:31:36.797Z,28.71
2019-04-21T11:34:07.309Z,28.77
2019-04-21T11:36:37.575Z,28.79
2019-04-21T11:39:35.523Z,28.75
2019-04-21T11:41:57.574Z,28.72
2019-04-21T11:44:28.949Z,28.81
2019-04-21T11:47:00.542Z,28.85
2019-04-21T11:49:32.529Z,28.94
2019-04-21T11:52:02.932Z,28.98
2019-04-21T11:54:32.969Z,29.10
2019-04-21T11:57:11.831Z,29.14
2019-04-21T11:59:35.648Z,29.27
2019-04-21T12:02:05.750Z,29.37
2019-04-21T12:04:35.827Z,29.47
2019-04-21T12:07:07.089Z,29.55
2019-04-21T12:09:37.651Z,29.63
2019-04-21T12:12:09.602Z,29.77
2019-04-21T12:14:39.837Z,29.79
2019-04-21T12:17:10.069Z,29.82
2019-04-21T12:19:40.883Z,29.79
2019-04-21T12:22:21.081Z,29.80
2019-04-21T12:24:43.165Z,29.85
2019-04-21T12:27:14.139Z,29.93
2019-04-21T12:29:44.213Z,30.04
2019-04-21T12:32:42.169Z,30.15
2019-04-21T12:35:13.629Z,30.27
2019-04-21T12:37:44.788Z,30.38
2019-04-21T12:40:14.930Z,30.42
2019-04-21T12:42:45.578Z,30.53
2019-04-21T12:45:15.621Z,30.63
2019-04-21T12:47:48.397Z,30.61
2019-04-21T12:50:17.407Z,30.59
2019-04-21T12:52:47.547Z,30.52
2019-04-21T12:55:17.796Z,30.62
2019-04-21T12:57:47.854Z,30.73
2019-04-21T13:00:20.778Z,30.77
2019-04-21T13:02:51.938Z,30.91
2019-04-21T13:05:22.070Z,30.93
2019-04-21T13:07:53.258Z,30.92
2019-04-21T13:10:24.297Z,30.84
2019-04-21T13:12:54.453Z,30.82
2019-04-21T13:15:25.407Z,30.83
2019-04-21T13:17:56.308Z,30.84
2019-04-21T13:20:27.445Z,30.91
2019-04-21T13:22:57.878Z,30.74
2019-04-21T13:25:27.971Z,30.61
2019-04-21T13:27:58.674Z,30.53
2019-04-21T13:30:28.726Z,30.32
2019-04-21T13:32:58.979Z,29.69
2019-04-21T13:35:29.063Z,29.11
2019-04-21T13:38:00.457Z,28.68
2019-04-21T13:41:17.801Z,28.12
2019-04-21T13:43:33.163Z,27.87
2019-04-21T13:46:03.834Z,27.63
2019-04-21T13:48:34.754Z,27.54
2019-04-21T13:51:05.062Z,27.57
2019-04-21T13:53:36.329Z,27.51
2019-04-21T13:56:06.980Z,27.52
2019-04-21T13:58:38.024Z,27.59
2019-04-21T14:01:09.532Z,27.61
2019-04-21T14:03:39.770Z,27.52
2019-04-21T14:06:09.857Z,27.55
2019-04-21T14:08:49.149Z,27.59
2019-04-21T14:11:19.924Z,27.37
2019-04-21T14:13:50.402Z,27.30
2019-04-21T14:16:20.504Z,27.35
2019-04-21T14:18:51.843Z,27.35
2019-04-21T14:21:23.237Z,27.41
2019-04-21T14:23:54.569Z,27.33
2019-04-21T14:26:25.031Z,27.30
2019-04-21T14:28:55.073Z,27.43
2019-04-21T14:31:26.373Z,27.52
2019-04-21T14:33:58.298Z,27.55
2019-04-21T14:36:30.622Z,27.51
2019-04-21T14:39:02.853Z,27.38
2019-04-21T14:41:33.633Z,27.30
2019-04-21T14:44:04.758Z,27.37
2019-04-21T14:46:44.909Z,27.46
2019-04-21T14:49:23.556Z,27.60
2019-04-21T14:52:01.155Z,27.59
2019-04-21T14:54:50.976Z,27.63
2019-04-21T14:57:21.273Z,27.43
2019-04-21T14:59:51.371Z,27.29
2019-04-21T15:02:22.295Z,27.30
2019-04-21T15:04:53.577Z,27.27
2019-04-21T15:07:23.698Z,27.20
2019-04-21T15:10:04.639Z,27.19
2019-04-21T15:12:27.851Z,27.06
2019-04-21T15:14:58.200Z,27.10
2019-04-21T15:17:29.389Z,27.01
2019-04-21T15:20:04.638Z,26.89
2019-04-21T15:22:32.320Z,26.85
2019-04-21T15:25:02.898Z,26.80
2019-04-21T15:27:33.149Z,26.85
2019-04-21T15:30:04.721Z,26.70
2019-04-21T15:32:34.869Z,26.57
2019-04-21T15:35:06.829Z,26.43
2019-04-21T15:37:37.926Z,26.27
2019-04-21T15:40:18.156Z,26.20
2019-04-21T15:42:39.688Z,26.23
2019-04-21T15:45:10.533Z,26.29
2019-04-21T15:47:42.064Z,26.24
2019-04-21T15:50:16.352Z,26.33
2019-04-21T15:52:45.520Z,26.28
2019-04-21T15:55:34.935Z,26.19
2019-04-21T15:58:24.790Z,26.21
2019-04-21T16:01:02.720Z,26.23
2019-04-21T16:03:32.798Z,26.22
2019-04-21T16:06:03.321Z,26.15
2019-04-21T16:08:33.475Z,26.07
2019-04-21T16:11:06.008Z,25.98
2019-04-21T16:13:35.280Z,25.90
2019-04-21T16:16:06.377Z,26.01
2019-04-21T16:18:36.454Z,25.92
2019-04-21T16:21:08.165Z,25.93
2019-04-21T16:23:38.394Z,25.75
2019-04-21T16:26:08.806Z,25.69
2019-04-21T16:28:39.866Z,25.63
2019-04-21T16:31:10.156Z,25.59
2019-04-21T16:33:41.053Z,25.57
2019-04-21T16:36:13.647Z,25.58
2019-04-21T16:38:44.153Z,25.55
2019-04-21T16:41:14.280Z,25.54
2019-04-21T16:43:45.015Z,25.48
2019-04-21T16:46:15.808Z,25.57
2019-04-21T16:48:46.034Z,25.57
2019-04-21T16:51:18.261Z,25.51
2019-04-21T16:53:59.775Z,25.48
2019-04-21T16:56:34.302Z,25.42
2019-04-21T16:59:10.566Z,25.31
2019-04-21T17:01:40.747Z,25.34
2019-04-21T17:04:10.871Z,25.29
2019-04-21T17:06:40.968Z,25.38
2019-04-21T17:09:12.555Z,25.28
2019-04-21T17:11:44.678Z,25.37
2019-04-21T17:14:31.188Z,25.40
2019-04-21T17:17:08.696Z,25.42
2019-04-21T17:19:24.157Z,25.52
2019-04-21T17:21:51.973Z,25.42
2019-04-21T17:24:22.251Z,25.32
2019-04-21T17:26:53.265Z,25.29
2019-04-21T17:29:24.862Z,25.26
2019-04-21T17:31:55.307Z,25.34
2019-04-21T17:34:29.728Z,25.42
2019-04-21T17:36:57.294Z,25.45
2019-04-21T17:39:27.321Z,25.50
2019-04-21T17:42:11.711Z,25.47
2019-04-21T17:44:29.804Z,25.44
2019-04-21T17:47:05.251Z,25.45
2019-04-21T17:49:32.944Z,25.51
2019-04-21T17:52:37.928Z,25.54
2019-04-21T17:55:25.394Z,25.40
2019-04-21T17:58:05.138Z,25.16
2019-04-21T18:01:05.490Z,24.99
2019-04-21T18:03:25.302Z,24.81
2019-04-21T18:05:48.510Z,24.66
2019-04-21T18:08:23.462Z,24.46
2019-04-21T18:10:47.624Z,24.30
2019-04-21T18:13:11.595Z,24.19
2019-04-21T18:15:51.239Z,24.15
2019-04-21T18:18:08.596Z,23.98
2019-04-21T18:20:41.791Z,23.83
2019-04-21T18:23:45.032Z,23.74
2019-04-21T18:26:19.190Z,23.63
2019-04-21T18:28:38.773Z,23.57
2019-04-21T18:31:12.246Z,23.47
2019-04-21T18:33:47.851Z,23.33
2019-04-21T18:36:34.847Z,23.20
2019-04-21T18:39:33.619Z,22.96
2019-04-21T18:42:17.590Z,22.77
2019-04-21T18:45:28.453Z,22.68
2019-04-21T18:47:51.093Z,22.59
2019-04-21T18:50:39.150Z,22.43
2019-04-21T18:53:16.963Z,22.33
2019-04-21T18:55:45.154Z,22.14
2019-04-21T18:58:13.721Z,22.02
2019-04-21T19:00:44.772Z,21.93
2019-04-21T19:03:20.841Z,21.89
2019-04-21T19:05:53.815Z,21.82
2019-04-21T19:08:40.549Z,21.81
2019-04-21T19:11:10.387Z,21.87
2019-04-21T19:14:17.665Z,21.92
2019-04-21T19:16:33.089Z,21.89
2019-04-21T19:19:33.031Z,21.70
2019-04-21T19:21:28.289Z,21.55
2019-04-21T19:26:46.786Z,21.43
2019-04-21T19:29:19.643Z,21.24
2019-04-21T19:31:44.453Z,21.18
2019-04-21T19:34:06.170Z,21.12
2019-04-21T19:36:29.146Z,20.99
2019-04-21T19:39:06.786Z,20.85
2019-04-21T19:41:43.213Z,20.77
2019-04-21T19:44:17.420Z,20.71
2019-04-21T19:46:49.216Z,20.64
2019-04-21T19:49:30.442Z,20.61
2019-04-21T19:51:51.453Z,20.52
2019-04-21T19:54:18.689Z,20.33
2019-04-21T19:56:40.898Z,20.07
2019-04-21T19:59:18.425Z,19.91
2019-04-21T20:01:46.235Z,19.75
2019-04-21T20:04:14.739Z,19.63
2019-04-21T20:06:57.669Z,19.50
2019-04-21T20:09:32.485Z,19.38
2019-04-21T20:12:03.757Z,19.17
2019-04-21T20:14:47.398Z,19.00
2019-04-21T20:17:04.627Z,18.80
2019-04-21T20:19:24.829Z,18.68
2019-04-21T20:21:54.967Z,18.73
2019-04-21T20:24:28.815Z,18.85
2019-04-21T20:27:03.494Z,18.93
2019-04-21T20:29:49.761Z,18.93
2019-04-21T20:32:26.682Z,18.63
2019-04-21T20:34:56.256Z,18.31
2019-04-21T20:37:21.314Z,18.26
2019-04-21T20:39:45.862Z,18.32
2019-04-21T20:42:21.169Z,18.24
2019-04-21T20:45:16.111Z,18.19
2019-04-21T20:47:22.768Z,18.01
2019-04-21T20:52:38.353Z,17.92
2019-04-21T20:55:02.153Z,17.82
2019-04-21T20:57:35.297Z,17.90
2019-04-21T21:00:05.751Z,17.95
2019-04-21T21:02:46.917Z,17.90
2019-04-21T21:05:03.010Z,17.78
2019-04-21T21:07:45.951Z,17.60
2019-04-21T21:10:16.692Z,17.49
2019-04-21T21:13:03.046Z,17.51
2019-04-21T21:15:10.017Z,17.40
2019-04-21T21:18:01.608Z,17.32
2019-04-21T21:20:24.649Z,17.34
2019-04-21T21:22:50.865Z,17.39
2019-04-21T21:25:36.608Z,17.37
2019-04-21T21:27:51.791Z,17.28
2019-04-21T21:30:26.542Z,17.19
2019-04-21T21:33:10.526Z,17.15
2019-04-21T21:35:32.465Z,17.07
2019-04-21T21:38:13.457Z,16.97
2019-04-21T21:40:36.673Z,16.89
2019-04-21T21:42:55.356Z,16.79
2019-04-21T21:45:30.391Z,16.77
2019-04-21T21:48:16.065Z,16.81
2019-04-21T21:50:42.107Z,16.77
2019-04-21T21:53:08.410Z,16.83
2019-04-21T21:55:35.466Z,16.93
2019-04-21T21:58:06.388Z,17.02
2019-04-21T22:00:43.137Z,16.98
2019-04-21T22:03:19.745Z,16.86
2019-04-21T22:05:50.382Z,16.75
2019-04-21T22:08:16.369Z,16.62
2019-04-21T22:10:47.383Z,16.48
2019-04-21T22:13:20.366Z,16.46
2019-04-21T22:15:56.467Z,16.49
2019-04-21T22:18:40.958Z,16.55
2019-04-21T22:21:09.298Z,16.56
2019-04-21T22:23:38.157Z,16.51
2019-04-21T22:25:57.578Z,16.45
2019-04-21T22:28:29.626Z,16.50
2019-04-21T22:31:01.060Z,16.47
2019-04-21T22:33:38.891Z,16.46
2019-04-21T22:36:18.518Z,16.43
2019-04-21T22:38:47.725Z,16.35
2019-04-21T22:41:20.408Z,16.33
2019-04-21T22:43:44.423Z,16.32
2019-04-21T22:46:15.356Z,16.22
2019-04-21T22:48:51.741Z,16.11
2019-04-21T22:51:25.384Z,16.02
2019-04-21T22:53:52.415Z,15.89
2019-04-21T22:56:26.811Z,15.83
2019-04-21T22:58:53.149Z,15.70
2019-04-21T23:01:28.547Z,15.57
2019-04-21T23:04:00.420Z,15.46
2019-04-21T23:06:30.851Z,15.36
2019-04-21T23:08:59.215Z,15.36
2019-04-21T23:11:37.478Z,15.31
2019-04-21T23:14:04.983Z,15.30
2019-04-21T23:16:36.265Z,15.23
2019-04-21T23:19:19.778Z,15.18
2019-04-21T23:21:57.770Z,15.19
2019-04-21T23:24:31.779Z,15.14
2019-04-21T23:26:54.229Z,15.09
2019-04-21T23:29:43.870Z,15.10
2019-04-21T23:32:00.802Z,15.09
2019-04-21T23:34:20.836Z,15.07
2019-04-21T23:36:57.659Z,15.05
2019-04-21T23:39:23.358Z,15.00
2019-04-21T23:41:54.998Z,14.92
2019-04-21T23:44:24.166Z,14.85
2019-04-21T23:46:57.554Z,14.80
2019-04-21T23:52:01.327Z,14.74
2019-04-21T23:54:29.228Z,14.71
2019-04-21T23:57:02.834Z,14.67
2019-04-21T23:59:40.171Z,14.63
